createdAt,value
2023-05-19T00:01:43.940Z,41.00
2023-05-19T00:04:11.724Z,40.50
2023-05-19T00:06:39.090Z,42.00
2023-05-19T00:09:10.482Z,41.00
2023-05-19T00:11:39.642Z,40.25
2023-05-19T00:14:08.990Z,40.50
2023-05-19T00:16:37.022Z,41.00
2023-05-19T00:19:06.052Z,41.75
2023-05-19T00:21:33.080Z,42.00
2023-05-19T00:23:59.970Z,41.00
2023-05-19T00:26:27.644Z,42.00
2023-05-19T00:28:59.961Z,42.00
2023-05-19T00:31:26.986Z,42.00
2023-05-19T00:33:55.256Z,41.00
2023-05-19T00:36:22.255Z,41.00
2023-05-19T00:38:49.589Z,40.00
2023-05-19T00:41:16.718Z,40.00
2023-05-19T00:43:43.768Z,39.00
2023-05-19T00:46:10.895Z,38.50
2023-05-19T00:48:37.869Z,39.00
2023-05-19T00:51:05.712Z,39.75
2023-05-19T00:53:34.286Z,40.00
2023-05-19T00:56:03.093Z,39.50
2023-05-19T00:58:31.690Z,39.00
2023-05-19T01:01:00.292Z,39.25
2023-05-19T01:03:27.395Z,40.00
2023-05-19T01:05:54.503Z,39.00
2023-05-19T01:08:21.589Z,38.50
2023-05-19T01:10:48.650Z,38.50
2023-05-19T01:13:17.048Z,39.50
2023-05-19T01:16:06.159Z,41.00
2023-05-19T01:19:00.139Z,41.25
2023-05-19T01:21:48.633Z,41.75
2023-05-19T01:24:57.354Z,41.00
2023-05-19T01:28:12.405Z,41.00
2023-05-19T01:30:41.618Z,41.50
2023-05-19T01:33:14.820Z,41.00
2023-05-19T01:35:43.629Z,41.25
2023-05-19T01:38:12.137Z,39.00
2023-05-19T01:40:41.644Z,40.00
2023-05-19T01:43:13.672Z,41.00
2023-05-19T01:45:41.067Z,39.50
2023-05-19T01:48:10.807Z,39.00
2023-05-19T01:50:39.779Z,41.00
2023-05-19T01:53:06.823Z,39.25
2023-05-19T01:55:42.317Z,39.50
2023-05-19T01:58:36.706Z,39.50
2023-05-19T02:01:15.970Z,41.00
2023-05-19T02:04:19.513Z,41.00
2023-05-19T02:06:55.363Z,41.00
2023-05-19T02:09:32.846Z,43.00
2023-05-19T02:12:24.301Z,41.50
2023-05-19T02:15:05.814Z,41.25
2023-05-19T02:17:38.157Z,41.00
2023-05-19T02:20:06.487Z,41.50
2023-05-19T02:22:33.364Z,43.00
2023-05-19T02:25:00.474Z,44.00
2023-05-19T02:27:27.718Z,45.00
2023-05-19T02:29:54.734Z,43.00
2023-05-19T02:32:21.658Z,43.00
2023-05-19T02:34:49.077Z,43.00
2023-05-19T02:37:16.613Z,41.75
2023-05-19T02:39:43.919Z,41.50
2023-05-19T02:42:11.326Z,42.00
2023-05-19T02:44:38.413Z,41.50
2023-05-19T02:47:05.335Z,41.00
2023-05-19T02:49:32.953Z,40.00
2023-05-19T02:52:00.781Z,40.25
2023-05-19T02:54:27.786Z,39.50
2023-05-19T02:56:54.726Z,40.00
2023-05-19T02:59:21.935Z,41.00
2023-05-19T03:01:49.518Z,42.00
2023-05-19T03:04:16.693Z,43.00
2023-05-19T03:06:43.677Z,42.00
2023-05-19T03:09:10.659Z,41.50
2023-05-19T03:11:37.556Z,43.00
2023-05-19T03:14:04.580Z,43.75
2023-05-19T03:16:31.616Z,44.00
2023-05-19T03:18:58.785Z,45.00
2023-05-19T03:21:25.861Z,46.50
2023-05-19T03:23:53.433Z,46.00
2023-05-19T03:26:20.742Z,45.00
2023-05-19T03:28:47.673Z,44.00
2023-05-19T03:31:14.672Z,47.00
2023-05-19T03:33:42.007Z,53.50
2023-05-19T03:36:09.165Z,54.75
2023-05-19T03:38:38.904Z,50.50
2023-05-19T03:41:05.991Z,48.25
2023-05-19T03:43:32.951Z,49.00
2023-05-19T03:46:03.441Z,48.50
2023-05-19T03:48:48.951Z,54.50
2023-05-19T03:51:18.557Z,52.50
2023-05-19T03:53:47.251Z,51.00
2023-05-19T03:56:14.679Z,50.00
2023-05-19T03:58:41.611Z,50.50
2023-05-19T04:01:08.532Z,50.00
2023-05-19T04:03:36.003Z,49.00
2023-05-19T04:06:03.708Z,50.75
2023-05-19T04:08:32.035Z,50.00
2023-05-19T04:10:59.132Z,50.00
2023-05-19T04:13:26.186Z,50.00
2023-05-19T04:15:53.381Z,51.00
2023-05-19T04:18:20.493Z,50.00
2023-05-19T04:20:47.573Z,49.50
2023-05-19T04:23:14.540Z,51.00
2023-05-19T04:25:41.814Z,51.00
2023-05-19T04:28:08.864Z,49.75
2023-05-19T04:30:35.828Z,49.00
2023-05-19T04:33:02.927Z,51.00
2023-05-19T04:35:30.291Z,50.00
2023-05-19T04:37:59.342Z,51.25
2023-05-19T04:40:29.743Z,49.00
2023-05-19T04:42:57.382Z,50.00
2023-05-19T04:45:25.298Z,50.00
2023-05-19T04:47:54.630Z,49.00
2023-05-19T04:50:21.544Z,50.00
2023-05-19T04:52:48.691Z,49.00
2023-05-19T04:55:15.727Z,48.75
2023-05-19T04:57:42.817Z,48.00
2023-05-19T05:00:10.804Z,47.00
2023-05-19T05:02:46.034Z,47.00
2023-05-19T05:05:13.808Z,46.00
2023-05-19T05:07:41.024Z,46.00
2023-05-19T05:10:08.889Z,44.00
2023-05-19T05:12:36.221Z,43.50
2023-05-19T05:15:03.976Z,43.00
2023-05-19T05:17:31.328Z,43.00
2023-05-19T05:19:58.756Z,43.75
2023-05-19T05:22:26.044Z,45.00
2023-05-19T05:24:54.075Z,46.00
2023-05-19T05:27:21.098Z,46.00
2023-05-19T05:29:48.167Z,45.00
2023-05-19T05:32:15.846Z,44.50
2023-05-19T05:34:43.774Z,45.00
2023-05-19T05:37:13.822Z,45.00
2023-05-19T05:39:42.524Z,44.50
2023-05-19T05:42:10.974Z,50.50
2023-05-19T05:44:39.532Z,60.00
2023-05-19T05:47:07.931Z,55.75
2023-05-19T05:49:36.059Z,52.00
2023-05-19T05:52:06.388Z,50.00
2023-05-19T05:54:40.572Z,48.00
2023-05-19T05:57:09.060Z,47.50
2023-05-19T05:59:35.976Z,46.50
2023-05-19T06:02:03.474Z,46.00
2023-05-19T06:04:31.492Z,44.50
2023-05-19T06:06:58.663Z,45.00
2023-05-19T06:09:26.365Z,46.75
2023-05-19T06:11:53.413Z,47.00
2023-05-19T06:14:20.770Z,46.00
2023-05-19T06:17:10.485Z,45.00
2023-05-19T06:19:37.810Z,45.00
2023-05-19T06:22:04.837Z,44.00
2023-05-19T06:24:31.933Z,44.00
2023-05-19T06:26:58.905Z,45.00
2023-05-19T06:29:25.940Z,43.25
2023-05-19T06:31:58.165Z,44.00
2023-05-19T06:34:25.426Z,44.00
2023-05-19T06:36:52.481Z,43.50
2023-05-19T06:39:20.695Z,44.00
2023-05-19T06:41:47.659Z,44.00
2023-05-19T06:44:34.613Z,44.00
2023-05-19T06:47:01.617Z,43.00
2023-05-19T06:49:28.544Z,45.50
2023-05-19T06:51:56.042Z,44.75
2023-05-19T06:54:22.996Z,45.50
2023-05-19T06:56:50.018Z,45.50
2023-05-19T06:59:17.012Z,46.00
2023-05-19T07:01:45.316Z,45.50
2023-05-19T07:04:12.555Z,50.00
2023-05-19T07:06:40.758Z,53.00
2023-05-19T07:09:09.286Z,53.00
2023-05-19T07:11:37.903Z,49.50
2023-05-19T07:14:05.419Z,48.50
2023-05-19T07:16:32.665Z,47.00
2023-05-19T07:18:59.787Z,47.00
2023-05-19T07:21:26.879Z,46.50
2023-05-19T07:23:53.788Z,46.00
2023-05-19T07:26:20.807Z,45.00
2023-05-19T07:28:47.799Z,45.00
2023-05-19T07:31:14.892Z,45.00
2023-05-19T07:33:41.933Z,45.00
2023-05-19T07:36:08.948Z,45.00
2023-05-19T07:38:36.016Z,45.00
2023-05-19T07:41:03.955Z,46.00
2023-05-19T07:43:30.926Z,45.00
2023-05-19T07:45:58.079Z,46.00
2023-05-19T07:48:25.083Z,46.00
2023-05-19T07:50:52.992Z,45.00
2023-05-19T07:53:20.716Z,45.50
2023-05-19T07:55:47.691Z,45.00
2023-05-19T07:58:15.539Z,45.00
2023-05-19T08:00:42.647Z,45.00
2023-05-19T08:03:10.370Z,45.00
2023-05-19T08:05:38.183Z,46.00
2023-05-19T08:08:23.882Z,47.00
2023-05-19T08:10:51.654Z,47.00
2023-05-19T08:13:18.642Z,46.00
2023-05-19T08:15:45.744Z,45.00
2023-05-19T08:18:12.782Z,44.50
2023-05-19T08:20:40.256Z,45.00
2023-05-19T08:23:07.209Z,43.00
2023-05-19T08:25:34.252Z,43.50
2023-05-19T08:28:01.283Z,43.00
2023-05-19T08:30:28.359Z,43.00
2023-05-19T08:32:55.523Z,43.00
2023-05-19T08:35:22.611Z,43.00
2023-05-19T08:37:49.544Z,44.00
2023-05-19T08:40:18.036Z,43.50
2023-05-19T08:42:46.020Z,42.00
2023-05-19T08:45:13.852Z,42.50
2023-05-19T08:47:46.501Z,44.00
2023-05-19T08:50:20.114Z,45.00
2023-05-19T08:52:53.057Z,43.00
2023-05-19T08:55:23.455Z,45.00
2023-05-19T08:57:51.150Z,45.50
2023-05-19T09:00:19.419Z,45.00
2023-05-19T09:02:59.798Z,45.00
2023-05-19T09:05:28.801Z,44.00
2023-05-19T09:07:55.793Z,45.00
2023-05-19T09:10:23.109Z,45.00
2023-05-19T09:12:50.240Z,44.75
2023-05-19T09:15:18.097Z,45.00
2023-05-19T09:17:47.887Z,45.00
2023-05-19T09:20:17.336Z,44.00
2023-05-19T09:22:45.104Z,45.00
2023-05-19T09:25:19.476Z,46.00
2023-05-19T09:27:47.412Z,45.00
2023-05-19T09:30:15.585Z,44.75
2023-05-19T09:32:43.826Z,45.00
2023-05-19T09:35:12.401Z,45.00
2023-05-19T09:37:40.841Z,44.25
2023-05-19T09:40:12.475Z,44.00
2023-05-19T09:42:42.101Z,43.25
2023-05-19T09:45:09.419Z,44.25
2023-05-19T09:47:38.081Z,45.00
2023-05-19T09:50:09.834Z,45.00
2023-05-19T09:52:39.999Z,44.00
2023-05-19T09:55:10.928Z,43.50
2023-05-19T09:57:39.039Z,44.50
2023-05-19T10:00:11.531Z,46.00
2023-05-19T10:02:42.219Z,45.00
2023-05-19T10:05:12.959Z,45.00
2023-05-19T10:07:41.080Z,45.75
2023-05-19T10:10:13.406Z,45.00
2023-05-19T10:12:41.162Z,44.50
2023-05-19T10:15:10.503Z,45.25
2023-05-19T10:17:42.860Z,46.00
2023-05-19T10:20:17.349Z,46.00
2023-05-19T10:22:46.614Z,45.50
2023-05-19T10:25:14.099Z,45.00
2023-05-19T10:27:44.568Z,44.75
2023-05-19T10:30:16.522Z,45.50
2023-05-19T10:32:46.907Z,45.00
2023-05-19T10:35:28.418Z,44.00
2023-05-19T10:38:24.476Z,45.00
2023-05-19T10:41:10.262Z,44.50
2023-05-19T10:43:39.905Z,46.00
2023-05-19T10:46:07.048Z,46.50
2023-05-19T10:48:35.200Z,45.00
2023-05-19T10:51:02.827Z,45.50
2023-05-19T10:53:33.450Z,45.00
2023-05-19T10:56:02.352Z,46.50
2023-05-19T10:58:50.481Z,47.50
2023-05-19T11:01:19.548Z,48.25
2023-05-19T11:03:56.029Z,50.75
2023-05-19T11:06:29.973Z,46.75
2023-05-19T11:09:10.326Z,55.25
2023-05-19T11:11:52.107Z,48.25
2023-05-19T11:14:21.829Z,47.00
2023-05-19T11:16:50.395Z,46.00
2023-05-19T11:19:27.598Z,45.00
2023-05-19T11:21:55.324Z,46.50
2023-05-19T11:24:46.579Z,46.00
2023-05-19T11:27:33.984Z,46.25
2023-05-19T11:30:02.618Z,46.00
2023-05-19T11:32:31.077Z,45.00
2023-05-19T11:34:58.362Z,45.00
2023-05-19T11:37:25.662Z,45.00
2023-05-19T11:39:53.302Z,46.00
2023-05-19T11:42:20.790Z,47.00
2023-05-19T11:44:49.474Z,48.00
2023-05-19T11:47:17.160Z,48.00
2023-05-19T11:50:04.688Z,47.00
2023-05-19T11:52:32.201Z,47.00
2023-05-19T11:55:02.291Z,46.75
2023-05-19T11:57:29.483Z,47.50
2023-05-19T11:59:56.826Z,47.00
2023-05-19T12:02:25.425Z,47.25
2023-05-19T12:04:52.878Z,46.25
2023-05-19T12:07:24.183Z,46.00
2023-05-19T12:09:52.330Z,45.25
2023-05-19T12:12:20.875Z,47.00
2023-05-19T12:14:50.004Z,47.00
2023-05-19T12:17:21.341Z,47.00
2023-05-19T12:19:49.262Z,55.75
2023-05-19T12:22:18.120Z,49.25
2023-05-19T12:24:47.391Z,49.00
2023-05-19T12:27:23.627Z,47.00
2023-05-19T12:29:51.610Z,46.00
2023-05-19T12:32:18.659Z,46.50
2023-05-19T12:34:45.723Z,45.50
2023-05-19T12:37:13.099Z,45.00
2023-05-19T12:39:42.205Z,46.00
2023-05-19T12:42:10.475Z,47.00
2023-05-19T12:44:49.501Z,47.75
2023-05-19T12:47:17.503Z,47.00
2023-05-19T12:50:00.760Z,46.00
2023-05-19T12:52:29.567Z,47.25
2023-05-19T12:55:00.574Z,47.00
2023-05-19T12:57:28.729Z,46.00
2023-05-19T13:00:00.989Z,45.00
2023-05-19T13:02:28.678Z,44.00
2023-05-19T13:04:55.778Z,45.50
2023-05-19T13:07:25.262Z,46.00
2023-05-19T13:09:54.785Z,45.50
2023-05-19T13:12:21.894Z,46.25
2023-05-19T13:14:48.839Z,46.50
2023-05-19T13:17:15.714Z,47.00
2023-05-19T13:19:43.010Z,54.00
2023-05-19T13:22:10.190Z,50.50
2023-05-19T13:24:37.436Z,47.00
2023-05-19T13:27:06.216Z,50.75
2023-05-19T13:29:33.671Z,50.00
2023-05-19T13:32:01.618Z,51.00
2023-05-19T13:34:29.022Z,50.00
2023-05-19T13:36:56.097Z,48.50
2023-05-19T13:39:25.643Z,48.00
2023-05-19T13:41:52.848Z,47.00
2023-05-19T13:44:19.902Z,51.00
2023-05-19T13:46:48.490Z,50.50
2023-05-19T13:49:17.196Z,51.00
2023-05-19T13:51:44.481Z,50.00
2023-05-19T13:54:11.998Z,49.00
2023-05-19T13:56:39.754Z,48.00
2023-05-19T13:59:07.109Z,48.00
2023-05-19T14:01:34.160Z,46.00
2023-05-19T14:04:01.486Z,46.00
2023-05-19T14:06:28.808Z,46.00
2023-05-19T14:08:55.920Z,46.50
2023-05-19T14:11:23.210Z,48.00
2023-05-19T14:13:52.522Z,47.00
2023-05-19T14:16:20.420Z,49.00
2023-05-19T14:18:47.986Z,47.00
2023-05-19T14:21:15.857Z,47.00
2023-05-19T14:23:43.161Z,47.75
2023-05-19T14:26:10.438Z,46.00
2023-05-19T14:28:37.741Z,47.00
2023-05-19T14:31:04.985Z,46.50
2023-05-19T14:33:35.232Z,46.00
2023-05-19T14:36:02.913Z,47.50
2023-05-19T14:38:32.581Z,48.75
2023-05-19T14:40:59.732Z,50.00
2023-05-19T14:43:27.269Z,48.00
2023-05-19T14:45:55.516Z,46.00
2023-05-19T14:48:22.868Z,45.00
2023-05-19T14:50:50.136Z,45.00
2023-05-19T14:53:17.217Z,50.00
2023-05-19T14:55:44.358Z,48.50
2023-05-19T14:58:26.773Z,47.00
2023-05-19T15:00:57.956Z,45.25
2023-05-19T15:03:25.403Z,47.00
2023-05-19T15:05:52.899Z,47.00
2023-05-19T15:08:20.173Z,47.00
2023-05-19T15:10:51.476Z,48.00
2023-05-19T15:13:18.971Z,48.00
2023-05-19T15:15:46.284Z,47.00
2023-05-19T15:18:13.779Z,46.50
2023-05-19T15:20:41.081Z,45.00
2023-05-19T15:23:08.443Z,45.00
2023-05-19T15:25:35.773Z,45.25
2023-05-19T15:28:03.356Z,45.00
2023-05-19T15:30:30.693Z,44.50
2023-05-19T15:33:00.391Z,46.00
2023-05-19T15:35:27.678Z,45.00
2023-05-19T15:37:54.916Z,45.00
2023-05-19T15:40:22.257Z,44.75
2023-05-19T15:42:49.700Z,45.00
2023-05-19T15:45:17.033Z,44.50
2023-05-19T15:47:44.321Z,45.00
2023-05-19T15:50:11.687Z,46.25
2023-05-19T15:52:39.765Z,47.00
2023-05-19T15:55:08.389Z,48.50
2023-05-19T15:57:35.931Z,47.00
2023-05-19T16:00:03.204Z,45.00
2023-05-19T16:02:32.834Z,46.75
2023-05-19T16:05:00.097Z,44.50
2023-05-19T16:07:27.580Z,45.00
2023-05-19T16:09:55.640Z,46.00
2023-05-19T16:12:23.725Z,45.00
2023-05-19T16:14:51.169Z,44.25
2023-05-19T16:17:18.434Z,44.00
2023-05-19T16:19:45.801Z,46.00
2023-05-19T16:22:13.157Z,44.00
2023-05-19T16:24:40.407Z,44.00
2023-05-19T16:27:07.661Z,43.25
2023-05-19T16:29:34.835Z,45.00
2023-05-19T16:32:02.203Z,44.00
2023-05-19T16:34:30.666Z,44.00
2023-05-19T16:36:58.043Z,44.00
2023-05-19T16:39:25.322Z,44.00
2023-05-19T16:41:52.355Z,46.00
2023-05-19T16:44:19.754Z,44.50
2023-05-19T16:46:47.188Z,46.75
2023-05-19T16:49:14.465Z,50.25
2023-05-19T16:51:42.137Z,48.25
2023-05-19T16:54:11.363Z,45.00
2023-05-19T16:56:38.879Z,45.00
2023-05-19T16:59:08.795Z,47.00
2023-05-19T17:01:37.429Z,47.50
2023-05-19T17:04:05.156Z,45.00
2023-05-19T17:06:32.585Z,45.50
2023-05-19T17:08:59.973Z,45.00
2023-05-19T17:11:27.370Z,43.00
2023-05-19T17:13:55.009Z,43.50
2023-05-19T17:16:24.285Z,44.00
2023-05-19T17:18:52.006Z,44.00
2023-05-19T17:21:19.603Z,44.00
2023-05-19T17:23:46.865Z,45.00
2023-05-19T17:26:14.146Z,44.00
2023-05-19T17:28:41.452Z,44.00
2023-05-19T17:31:15.606Z,44.25
2023-05-19T17:33:42.891Z,45.00
2023-05-19T17:36:10.287Z,45.50
2023-05-19T17:38:37.752Z,46.50
2023-05-19T17:41:05.383Z,45.50
2023-05-19T17:43:32.599Z,44.50
2023-05-19T17:46:01.206Z,44.00
2023-05-19T17:48:28.920Z,44.00
2023-05-19T17:50:56.197Z,44.00
2023-05-19T17:53:23.986Z,43.50
2023-05-19T17:56:01.605Z,44.00
2023-05-19T17:58:29.580Z,44.00
2023-05-19T18:00:57.188Z,44.00
2023-05-19T18:03:25.300Z,43.00
2023-05-19T18:05:54.381Z,43.50
2023-05-19T18:08:24.016Z,43.50
2023-05-19T18:10:51.612Z,44.50
2023-05-19T18:13:19.231Z,45.00
2023-05-19T18:15:47.465Z,46.00
2023-05-19T18:18:20.487Z,45.00
2023-05-19T18:20:48.937Z,45.00
2023-05-19T18:23:16.277Z,44.00
2023-05-19T18:25:49.550Z,44.00
2023-05-19T18:28:16.897Z,45.00
2023-05-19T18:30:44.161Z,45.25
2023-05-19T18:33:12.066Z,48.00
2023-05-19T18:35:40.768Z,46.50
2023-05-19T18:38:08.394Z,45.50
2023-05-19T18:40:35.959Z,45.00
2023-05-19T18:43:03.634Z,44.00
2023-05-19T18:45:31.132Z,47.00
2023-05-19T18:47:58.515Z,47.00
2023-05-19T18:50:26.328Z,46.00
2023-05-19T18:52:53.652Z,46.00
2023-05-19T18:55:21.061Z,45.00
2023-05-19T18:57:48.399Z,44.00
2023-05-19T19:00:15.804Z,44.25
2023-05-19T19:02:43.725Z,45.25
2023-05-19T19:05:13.264Z,45.00
2023-05-19T19:07:46.611Z,45.50
2023-05-19T19:10:16.645Z,45.50
2023-05-19T19:12:47.323Z,45.50
2023-05-19T19:15:34.440Z,45.00
2023-05-19T19:18:01.690Z,46.00
2023-05-19T19:20:28.937Z,44.25
2023-05-19T19:22:56.212Z,44.50
2023-05-19T19:25:23.802Z,44.00
2023-05-19T19:27:54.066Z,42.00
2023-05-19T19:30:21.464Z,43.00
2023-05-19T19:32:51.309Z,42.50
2023-05-19T19:35:22.258Z,43.00
2023-05-19T19:37:50.047Z,42.00
2023-05-19T19:40:17.219Z,42.00
2023-05-19T19:42:44.254Z,43.25
2023-05-19T19:45:14.744Z,42.75
2023-05-19T19:47:43.380Z,42.75
2023-05-19T19:50:11.445Z,42.50
2023-05-19T19:52:38.936Z,42.75
2023-05-19T19:55:06.535Z,42.00
2023-05-19T19:57:33.660Z,42.50
2023-05-19T20:00:00.987Z,42.75
2023-05-19T20:02:28.208Z,42.50
2023-05-19T20:04:55.229Z,44.50
2023-05-19T20:07:22.236Z,43.00
2023-05-19T20:09:49.271Z,45.00
2023-05-19T20:12:16.481Z,45.00
2023-05-19T20:14:43.513Z,43.00
2023-05-19T20:17:10.489Z,42.00
2023-05-19T20:19:37.573Z,42.00
2023-05-19T20:22:04.870Z,43.50
2023-05-19T20:24:31.760Z,42.50
2023-05-19T20:26:58.751Z,42.00
2023-05-19T20:29:25.674Z,42.25
2023-05-19T20:31:53.647Z,41.75
2023-05-19T20:34:21.996Z,40.50
2023-05-19T20:36:49.023Z,41.50
2023-05-19T20:39:16.037Z,42.50
2023-05-19T20:41:43.204Z,41.00
2023-05-19T20:44:10.064Z,41.50
2023-05-19T20:46:37.016Z,43.00
2023-05-19T20:49:03.952Z,41.00
2023-05-19T20:51:31.096Z,42.00
2023-05-19T20:53:58.011Z,42.00
2023-05-19T20:56:24.974Z,42.25
2023-05-19T20:58:51.880Z,41.00
2023-05-19T21:01:18.893Z,40.50
2023-05-19T21:03:45.780Z,42.00
2023-05-19T21:06:12.772Z,42.00
2023-05-19T21:08:39.627Z,42.00
2023-05-19T21:11:06.657Z,41.75
2023-05-19T21:13:33.875Z,41.00
2023-05-19T21:16:00.893Z,42.00
2023-05-19T21:18:27.821Z,41.00
2023-05-19T21:20:54.820Z,41.00
2023-05-19T21:23:22.954Z,41.25
2023-05-19T21:25:50.639Z,41.00
2023-05-19T21:28:17.554Z,41.00
2023-05-19T21:30:48.440Z,41.25
2023-05-19T21:33:15.419Z,41.00
2023-05-19T21:35:42.412Z,40.50
2023-05-19T21:38:22.632Z,40.00
2023-05-19T21:40:50.684Z,39.50
2023-05-19T21:43:17.632Z,40.50
2023-05-19T21:45:45.298Z,41.00
2023-05-19T21:48:12.306Z,41.00
2023-05-19T21:50:39.334Z,41.00
2023-05-19T21:53:06.222Z,42.00
2023-05-19T21:55:33.366Z,42.00
2023-05-19T21:58:02.402Z,40.00
2023-05-19T22:00:29.828Z,41.00
2023-05-19T22:02:56.887Z,41.00
2023-05-19T22:05:24.056Z,40.25
2023-05-19T22:07:51.117Z,41.00
2023-05-19T22:10:18.213Z,40.00
2023-05-19T22:12:45.182Z,41.00
2023-05-19T22:15:12.240Z,40.00
2023-05-19T22:17:39.467Z,40.00
2023-05-19T22:20:07.162Z,38.00
2023-05-19T22:22:34.622Z,39.50
2023-05-19T22:25:03.325Z,39.00
2023-05-19T22:27:30.273Z,37.50
2023-05-19T22:29:57.251Z,39.50
2023-05-19T22:32:24.403Z,40.00
2023-05-19T22:34:51.629Z,38.50
2023-05-19T22:37:18.576Z,39.50
2023-05-19T22:39:45.643Z,39.00
2023-05-19T22:42:12.576Z,38.00
2023-05-19T22:44:39.578Z,39.00
2023-05-19T22:47:06.606Z,40.00
2023-05-19T22:49:33.619Z,38.50
2023-05-19T22:52:00.493Z,39.00
2023-05-19T22:54:27.499Z,39.00
2023-05-19T22:56:54.510Z,38.00
2023-05-19T22:59:21.472Z,37.75
2023-05-19T23:01:48.410Z,39.00
2023-05-19T23:04:15.575Z,39.50
2023-05-19T23:06:42.516Z,38.50
2023-05-19T23:09:09.496Z,39.00
2023-05-19T23:11:36.574Z,39.00
2023-05-19T23:14:03.672Z,36.00
2023-05-19T23:16:30.624Z,37.00
2023-05-19T23:18:57.730Z,37.00
2023-05-19T23:21:24.739Z,37.00
2023-05-19T23:23:51.865Z,37.00
2023-05-19T23:26:18.774Z,36.00
2023-05-19T23:28:45.708Z,37.50
2023-05-19T23:31:12.631Z,38.00
2023-05-19T23:33:39.655Z,37.00
2023-05-19T23:36:08.164Z,37.00
2023-05-19T23:38:36.517Z,37.75
2023-05-19T23:41:04.117Z,38.00
2023-05-19T23:43:31.457Z,38.00
2023-05-19T23:45:59.021Z,37.50
2023-05-19T23:48:26.921Z,37.00
2023-05-19T23:50:53.808Z,37.00
2023-05-19T23:53:20.857Z,36.00
2023-05-19T23:55:47.825Z,38.00
2023-05-19T23:58:14.736Z,37.50
